Time;durP1;ratioP1;P1;durP2;ratioP2;P2;SDS_P1;SDS_P2;PMS_P1;PMS_P2;Temp;Humidity;BMP_temperature;BMP_pressure;BME280_temperature;BME280_humidity;BME280_pressure;Samples;Min_cycle;Max_cycle;Signal;HPM_P1;HPM_P2
2023/05/20 00:01:03;;;;;;;6.50;5.80;;;;;;;;;;5043421;28;20116;-67
2023/05/20 00:03:28;;;;;;;7.13;5.57;;;;;;;;;;5038034;28;20459;-67
2023/05/20 00:05:54;;;;;;;6.28;5.72;;;;;;;;;;5037374;28;20043;-67
2023/05/20 00:08:20;;;;;;;6.88;5.97;;;;;;;;;;5038044;28;20064;-67
2023/05/20 00:10:45;;;;;;;6.60;6.00;;;;;;;;;;5042795;28;20527;-67
2023/05/20 00:13:11;;;;;;;8.77;6.30;;;;;;;;;;5038251;28;20065;-67
2023/05/20 00:15:37;;;;;;;10.38;5.70;;;;;;;;;;5040434;28;20473;-67
2023/05/20 00:18:03;;;;;;;7.40;6.07;;;;;;;;;;5042879;28;20032;-66
2023/05/20 00:20:28;;;;;;;6.78;6.07;;;;;;;;;;5039520;28;20456;-66
2023/05/20 00:22:54;;;;;;;7.45;6.60;;;;;;;;;;5042827;28;20097;-66
2023/05/20 00:25:20;;;;;;;5.90;5.40;;;;;;;;;;5036280;28;20107;-66
2023/05/20 00:27:46;;;;;;;6.75;6.15;;;;;;;;;;5041175;28;20049;-66
2023/05/20 00:30:11;;;;;;;8.45;6.25;;;;;;;;;;5038421;28;20033;-66
2023/05/20 00:32:37;;;;;;;6.68;6.03;;;;;;;;;;5036058;28;20029;-66
2023/05/20 00:35:03;;;;;;;6.20;5.57;;;;;;;;;;5024340;28;20029;-66
2023/05/20 00:37:29;;;;;;;6.53;5.85;;;;;;;;;;5022051;28;20544;-66
2023/05/20 00:39:55;;;;;;;7.03;6.30;;;;;;;;;;5034685;28;20124;-66
2023/05/20 00:42:20;;;;;;;9.95;6.82;;;;;;;;;;5037783;28;20113;-67
2023/05/20 00:44:47;;;;;;;7.28;6.20;;;;;;;;;;5040130;28;20059;-66
2023/05/20 00:47:17;;;;;;;7.50;6.70;;;;;;;;;;5042236;28;20503;-67
2023/05/20 00:49:44;;;;;;;6.95;6.25;;;;;;;;;;5018597;28;20092;-67
2023/05/20 00:52:10;;;;;;;9.63;6.97;;;;;;;;;;5038805;28;20029;-67
2023/05/20 00:54:36;;;;;;;8.63;7.18;;;;;;;;;;5041332;28;20072;-67
2023/05/20 00:57:04;;;;;;;7.68;5.40;;;;;;;;;;5037133;28;20057;-67
2023/05/20 00:59:29;;;;;;;6.85;6.20;;;;;;;;;;5035419;28;20078;-67
2023/05/20 01:01:55;;;;;;;6.82;6.22;;;;;;;;;;5017399;28;20026;-67
2023/05/20 01:04:21;;;;;;;8.65;7.38;;;;;;;;;;5041295;28;20039;-67
2023/05/20 01:06:48;;;;;;;8.50;6.63;;;;;;;;;;5015484;28;20032;-67
2023/05/20 01:09:14;;;;;;;7.18;6.45;;;;;;;;;;5035809;28;20055;-67
2023/05/20 01:12:08;;;;;;;7.60;6.75;;;;;;;;;;5023402;28;20055;-67
2023/05/20 01:14:40;;;;;;;7.03;6.32;;;;;;;;;;5033293;28;20040;-67
2023/05/20 01:17:11;;;;;;;7.95;6.07;;;;;;;;;;5019762;28;20068;-68
2023/05/20 01:19:44;;;;;;;7.78;6.63;;;;;;;;;;5024851;28;20055;-68
2023/05/20 01:22:11;;;;;;;8.57;6.32;;;;;;;;;;5022485;28;20107;-67
2023/05/20 01:24:41;;;;;;;6.57;5.72;;;;;;;;;;5039818;28;20449;-67
2023/05/20 01:27:10;;;;;;;6.43;5.93;;;;;;;;;;5025254;28;20040;-68
2023/05/20 01:29:40;;;;;;;6.80;6.10;;;;;;;;;;5023796;28;20166;-68
2023/05/20 01:32:21;;;;;;;6.63;6.03;;;;;;;;;;5041351;28;20152;-66
2023/05/20 01:34:51;;;;;;;7.40;6.22;;;;;;;;;;5036980;28;20040;-66
2023/05/20 01:37:18;;;;;;;6.82;6.15;;;;;;;;;;5023569;28;20467;-68
2023/05/20 01:39:48;;;;;;;16.02;6.80;;;;;;;;;;5020642;28;20512;-68
2023/05/20 01:42:14;;;;;;;8.70;6.67;;;;;;;;;;5034815;28;20025;-67
2023/05/20 01:44:41;;;;;;;7.68;6.25;;;;;;;;;;5023943;28;20037;-67
2023/05/20 01:47:06;;;;;;;9.60;6.45;;;;;;;;;;5021212;28;20036;-67
2023/05/20 01:49:32;;;;;;;8.82;6.40;;;;;;;;;;5034124;28;20037;-67
2023/05/20 01:51:58;;;;;;;8.02;6.72;;;;;;;;;;5034302;28;20052;-67
2023/05/20 01:54:24;;;;;;;6.72;6.13;;;;;;;;;;5041829;28;20034;-65
2023/05/20 01:56:49;;;;;;;8.90;6.97;;;;;;;;;;5020376;28;20091;-67
2023/05/20 01:59:15;;;;;;;8.73;5.85;;;;;;;;;;5024257;28;20063;-67
2023/05/20 02:01:41;;;;;;;6.28;5.68;;;;;;;;;;5005811;28;20687;-67
2023/05/20 02:04:08;;;;;;;6.93;6.20;;;;;;;;;;5017945;28;20037;-66
2023/05/20 02:06:34;;;;;;;9.02;6.47;;;;;;;;;;5008854;28;20047;-66
2023/05/20 02:08:59;;;;;;;6.50;5.80;;;;;;;;;;5023808;28;20037;-66
2023/05/20 02:11:25;;;;;;;6.93;5.32;;;;;;;;;;5021224;28;20044;-66
2023/05/20 02:13:53;;;;;;;6.63;6.03;;;;;;;;;;5018419;28;20454;-66
2023/05/20 02:16:19;;;;;;;11.00;6.15;;;;;;;;;;5023025;28;20129;-66
2023/05/20 02:18:44;;;;;;;6.57;5.97;;;;;;;;;;5018965;28;20107;-67
2023/05/20 02:21:15;;;;;;;7.90;7.10;;;;;;;;;;5019645;28;20035;-66
2023/05/20 02:23:40;;;;;;;8.27;6.85;;;;;;;;;;5019442;28;20037;-66
2023/05/20 02:26:06;;;;;;;6.88;6.28;;;;;;;;;;5028408;28;20025;-67
2023/05/20 02:28:36;;;;;;;6.97;6.28;;;;;;;;;;5024338;28;20064;-67
2023/05/20 02:31:02;;;;;;;6.90;6.38;;;;;;;;;;5027195;28;20029;-66
2023/05/20 02:33:30;;;;;;;7.25;6.65;;;;;;;;;;5028977;28;20037;-68
2023/05/20 02:35:55;;;;;;;6.63;6.03;;;;;;;;;;5036975;28;20029;-67
2023/05/20 02:38:21;;;;;;;8.27;6.38;;;;;;;;;;5027149;28;20112;-68
2023/05/20 02:40:46;;;;;;;7.40;6.70;;;;;;;;;;5026026;28;20069;-67
2023/05/20 02:43:12;;;;;;;6.63;6.10;;;;;;;;;;5025424;28;20055;-67
2023/05/20 02:45:37;;;;;;;6.53;5.90;;;;;;;;;;5027614;28;20103;-67
2023/05/20 02:48:04;;;;;;;8.13;6.65;;;;;;;;;;5042236;28;20074;-67
2023/05/20 02:50:30;;;;;;;6.35;5.90;;;;;;;;;;5015503;28;20045;-67
2023/05/20 02:52:56;;;;;;;6.97;6.38;;;;;;;;;;5027985;28;20040;-68
2023/05/20 02:55:22;;;;;;;7.18;6.47;;;;;;;;;;5024519;28;20025;-67
2023/05/20 02:57:48;;;;;;;6.72;6.13;;;;;;;;;;5026812;28;20036;-67
2023/05/20 03:00:15;;;;;;;6.60;6.10;;;;;;;;;;5036406;28;20604;-67
2023/05/20 03:02:40;;;;;;;7.15;6.55;;;;;;;;;;5027917;28;20039;-68
2023/05/20 03:05:07;;;;;;;7.03;6.10;;;;;;;;;;5021399;28;20037;-67
2023/05/20 03:07:35;;;;;;;7.40;6.65;;;;;;;;;;5035765;28;20037;-67
2023/05/20 03:10:01;;;;;;;6.72;6.13;;;;;;;;;;5021805;28;20037;-67
2023/05/20 03:12:29;;;;;;;6.75;6.00;;;;;;;;;;5025849;28;20512;-67
2023/05/20 03:14:55;;;;;;;7.22;6.57;;;;;;;;;;5009800;28;20052;-67
2023/05/20 03:17:21;;;;;;;7.57;6.88;;;;;;;;;;5023806;28;20029;-67
2023/05/20 03:19:47;;;;;;;7.15;6.40;;;;;;;;;;5046245;28;20040;-67
2023/05/20 03:22:13;;;;;;;7.38;6.63;;;;;;;;;;5029743;28;20071;-67
2023/05/20 03:24:39;;;;;;;6.90;6.15;;;;;;;;;;5027738;28;20269;-67
2023/05/20 03:27:05;;;;;;;6.72;6.13;;;;;;;;;;5038874;28;20025;-67
2023/05/20 03:29:33;;;;;;;7.50;6.83;;;;;;;;;;5041938;28;20049;-67
2023/05/20 03:31:59;;;;;;;6.72;6.13;;;;;;;;;;5039801;28;20369;-67
2023/05/20 03:34:27;;;;;;;6.93;6.32;;;;;;;;;;5040572;28;20035;-67
2023/05/20 03:36:54;;;;;;;7.65;6.68;;;;;;;;;;5023234;28;20048;-67
2023/05/20 03:39:19;;;;;;;13.07;6.35;;;;;;;;;;5042958;28;20033;-67
2023/05/20 03:41:45;;;;;;;10.63;6.90;;;;;;;;;;5009082;28;20037;-68
2023/05/20 03:44:10;;;;;;;7.93;7.13;;;;;;;;;;5023539;28;20041;-67
2023/05/20 03:46:37;;;;;;;6.45;5.78;;;;;;;;;;5026941;28;20044;-67
2023/05/20 03:49:03;;;;;;;6.45;5.85;;;;;;;;;;5026535;28;20399;-68
2023/05/20 03:51:30;;;;;;;6.47;5.88;;;;;;;;;;5023542;28;20040;-67
2023/05/20 03:54:01;;;;;;;6.55;5.95;;;;;;;;;;5028140;28;20033;-66
2023/05/20 03:56:27;;;;;;;6.30;5.70;;;;;;;;;;5040413;28;20039;-67
2023/05/20 03:58:54;;;;;;;7.10;6.40;;;;;;;;;;5022540;28;20033;-67
2023/05/20 04:01:20;;;;;;;7.38;6.68;;;;;;;;;;5025985;28;20033;-67
2023/05/20 04:03:45;;;;;;;6.45;5.85;;;;;;;;;;5025804;28;20091;-67
2023/05/20 04:06:13;;;;;;;7.18;6.57;;;;;;;;;;5026214;28;20669;-67
2023/05/20 04:08:39;;;;;;;6.75;5.93;;;;;;;;;;5017105;28;20702;-67
2023/05/20 04:11:05;;;;;;;6.30;5.70;;;;;;;;;;5018116;28;20033;-67
2023/05/20 04:13:31;;;;;;;7.20;6.10;;;;;;;;;;5022410;28;20036;-68
2023/05/20 04:15:57;;;;;;;7.38;6.50;;;;;;;;;;5024748;28;20052;-65
2023/05/20 04:18:23;;;;;;;9.55;6.10;;;;;;;;;;5004218;28;20140;-68
2023/05/20 04:20:52;;;;;;;6.28;5.70;;;;;;;;;;5016675;28;20459;-68
2023/05/20 04:23:18;;;;;;;6.20;5.70;;;;;;;;;;5021369;28;20039;-68
2023/05/20 04:25:44;;;;;;;5.70;5.28;;;;;;;;;;5003757;28;20032;-68
2023/05/20 04:28:12;;;;;;;6.13;5.57;;;;;;;;;;5024980;28;20055;-68
2023/05/20 04:30:38;;;;;;;6.53;5.60;;;;;;;;;;5023542;28;20064;-68
2023/05/20 04:33:04;;;;;;;6.72;6.13;;;;;;;;;;5001988;28;20424;-68
2023/05/20 04:35:30;;;;;;;6.85;6.15;;;;;;;;;;5040702;28;20071;-68
2023/05/20 04:38:00;;;;;;;6.68;6.18;;;;;;;;;;5019841;28;20056;-69
2023/05/20 04:40:27;;;;;;;6.55;5.95;;;;;;;;;;5022826;28;20481;-68
2023/05/20 04:42:53;;;;;;;6.43;5.93;;;;;;;;;;5020750;28;20124;-68
2023/05/20 04:45:19;;;;;;;6.78;6.18;;;;;;;;;;5022332;28;20071;-68
2023/05/20 04:47:45;;;;;;;7.30;5.80;;;;;;;;;;5026412;28;20057;-67
2023/05/20 04:50:12;;;;;;;6.55;6.00;;;;;;;;;;5024041;28;20032;-68
2023/05/20 04:52:44;;;;;;;6.55;6.05;;;;;;;;;;5023513;28;20048;-67
2023/05/20 04:55:11;;;;;;;5.72;5.22;;;;;;;;;;5038059;28;20030;-68
2023/05/20 04:57:40;;;;;;;6.00;5.50;;;;;;;;;;5022018;28;20021;-68
2023/05/20 05:00:09;;;;;;;5.50;5.00;;;;;;;;;;5025072;28;20515;-68
2023/05/20 05:02:35;;;;;;;6.50;5.72;;;;;;;;;;5022058;28;20080;-68
2023/05/20 05:05:02;;;;;;;5.72;5.22;;;;;;;;;;5016167;28;20044;-68
2023/05/20 05:07:27;;;;;;;6.57;5.85;;;;;;;;;;5039622;28;20099;-68
2023/05/20 05:09:53;;;;;;;5.93;5.47;;;;;;;;;;5021217;28;20033;-68
2023/05/20 05:12:20;;;;;;;6.55;5.93;;;;;;;;;;5007522;28;20026;-68
2023/05/20 05:14:46;;;;;;;7.10;5.80;;;;;;;;;;5037175;28;20088;-68
2023/05/20 05:17:11;;;;;;;5.60;5.10;;;;;;;;;;5037832;28;22118;-67
2023/05/20 05:19:38;;;;;;;6.00;5.50;;;;;;;;;;5021410;28;20107;-68
2023/05/20 05:22:03;;;;;;;6.20;5.70;;;;;;;;;;5021166;28;20119;-67
2023/05/20 05:24:29;;;;;;;6.50;5.95;;;;;;;;;;5027554;28;20041;-67
2023/05/20 05:26:55;;;;;;;6.30;5.70;;;;;;;;;;5018834;28;20085;-67
2023/05/20 05:29:21;;;;;;;6.45;5.85;;;;;;;;;;5025292;28;20036;-67
2023/05/20 05:31:47;;;;;;;6.32;5.80;;;;;;;;;;5042601;28;20047;-68
2023/05/20 05:34:13;;;;;;;6.15;5.55;;;;;;;;;;5037230;28;20630;-68
2023/05/20 05:36:39;;;;;;;6.55;5.68;;;;;;;;;;5033286;28;20034;-68
2023/05/20 05:39:05;;;;;;;5.72;5.05;;;;;;;;;;5021616;28;20492;-68
2023/05/20 05:41:31;;;;;;;7.75;5.47;;;;;;;;;;5021077;28;20558;-68
2023/05/20 05:43:58;;;;;;;7.18;5.63;;;;;;;;;;5023005;28;20041;-68
2023/05/20 05:46:24;;;;;;;6.07;5.50;;;;;;;;;;5018694;28;20037;-68
2023/05/20 05:48:50;;;;;;;7.57;5.43;;;;;;;;;;5019550;28;20052;-67
2023/05/20 05:51:17;;;;;;;6.20;5.60;;;;;;;;;;5025841;28;20037;-69
2023/05/20 05:53:42;;;;;;;5.88;5.38;;;;;;;;;;5025093;28;20067;-69
2023/05/20 05:56:08;;;;;;;5.93;5.43;;;;;;;;;;5038146;28;20055;-68
2023/05/20 05:58:34;;;;;;;6.55;5.53;;;;;;;;;;5028408;28;20488;-69
2023/05/20 06:01:02;;;;;;;6.22;5.63;;;;;;;;;;5023857;28;20515;-68
2023/05/20 06:03:28;;;;;;;5.50;5.10;;;;;;;;;;5022966;28;20032;-69
2023/05/20 06:05:54;;;;;;;5.90;5.40;;;;;;;;;;5033300;28;20025;-68
2023/05/20 06:08:20;;;;;;;6.28;5.68;;;;;;;;;;5023704;28;20048;-68
2023/05/20 06:10:48;;;;;;;5.70;5.20;;;;;;;;;;5022803;28;20401;-69
2023/05/20 06:13:15;;;;;;;7.30;5.63;;;;;;;;;;5023740;28;20153;-69
2023/05/20 06:15:41;;;;;;;5.82;5.32;;;;;;;;;;5043151;28;20057;-69
2023/05/20 06:18:06;;;;;;;5.97;5.47;;;;;;;;;;5020979;28;20057;-68
2023/05/20 06:20:32;;;;;;;6.05;5.55;;;;;;;;;;5026346;28;20040;-68
2023/05/20 06:22:58;;;;;;;5.50;5.00;;;;;;;;;;5022761;28;20033;-68
2023/05/20 06:25:30;;;;;;;5.65;5.15;;;;;;;;;;5022218;28;20041;-69
2023/05/20 06:27:55;;;;;;;5.10;4.72;;;;;;;;;;5025658;28;20558;-68
2023/05/20 06:30:22;;;;;;;5.65;5.15;;;;;;;;;;5027924;28;20086;-69
2023/05/20 06:32:48;;;;;;;5.82;5.15;;;;;;;;;;5028121;28;20480;-68
2023/05/20 06:35:13;;;;;;;7.25;5.20;;;;;;;;;;5020206;28;20037;-68
2023/05/20 06:37:39;;;;;;;5.38;4.97;;;;;;;;;;5029295;28;20507;-68
2023/05/20 06:40:06;;;;;;;5.95;5.35;;;;;;;;;;5026564;28;20068;-69
2023/05/20 06:42:31;;;;;;;6.68;5.70;;;;;;;;;;5042990;28;20492;-68
2023/05/20 06:45:05;;;;;;;5.03;4.60;;;;;;;;;;5022014;28;20483;-68
2023/05/20 06:47:41;;;;;;;5.70;5.20;;;;;;;;;;5025336;28;20037;-69
2023/05/20 06:50:08;;;;;;;5.30;4.88;;;;;;;;;;5026109;28;20277;-69
2023/05/20 06:52:34;;;;;;;5.38;4.97;;;;;;;;;;5019226;28;20065;-68
2023/05/20 06:55:00;;;;;;;5.80;5.30;;;;;;;;;;5019089;28;20060;-68
2023/05/20 06:57:26;;;;;;;6.63;5.93;;;;;;;;;;5041947;28;20032;-69
2023/05/20 06:59:52;;;;;;;8.85;5.75;;;;;;;;;;5043987;28;20045;-68
2023/05/20 07:02:20;;;;;;;6.47;5.38;;;;;;;;;;5022107;28;20108;-68
2023/05/20 07:04:47;;;;;;;7.22;5.45;;;;;;;;;;5021827;28;20045;-68
2023/05/20 07:07:13;;;;;;;6.45;5.78;;;;;;;;;;5021509;28;20508;-68
2023/05/20 07:09:39;;;;;;;5.65;5.15;;;;;;;;;;5042365;28;20504;-68
2023/05/20 07:12:06;;;;;;;5.90;5.40;;;;;;;;;;5021402;28;20091;-68
2023/05/20 07:14:32;;;;;;;5.57;5.07;;;;;;;;;;5039733;28;20032;-68
2023/05/20 07:16:57;;;;;;;5.50;5.00;;;;;;;;;;5025427;28;20033;-66
2023/05/20 07:19:23;;;;;;;6.13;5.53;;;;;;;;;;5036454;28;20115;-66
2023/05/20 07:21:48;;;;;;;6.05;5.55;;;;;;;;;;5022874;28;20037;-68
2023/05/20 07:24:15;;;;;;;5.72;4.82;;;;;;;;;;5044776;28;20040;-67
2023/05/20 07:26:41;;;;;;;5.63;5.00;;;;;;;;;;5023053;28;20408;-68
2023/05/20 07:29:09;;;;;;;5.55;5.15;;;;;;;;;;5020998;28;20041;-67
2023/05/20 07:31:35;;;;;;;8.77;5.30;;;;;;;;;;5023382;28;20075;-66
2023/05/20 07:34:01;;;;;;;5.88;5.30;;;;;;;;;;5022370;28;20594;-66
2023/05/20 07:36:27;;;;;;;5.95;5.32;;;;;;;;;;5025091;28;20041;-66
2023/05/20 07:38:56;;;;;;;6.18;5.68;;;;;;;;;;5024059;28;20082;-68
2023/05/20 07:41:22;;;;;;;6.57;6.03;;;;;;;;;;5007968;28;20442;-67
2023/05/20 07:43:47;;;;;;;5.75;5.25;;;;;;;;;;5039213;28;20198;-67
2023/05/20 07:46:13;;;;;;;7.35;5.32;;;;;;;;;;5024945;28;20502;-67
2023/05/20 07:48:39;;;;;;;8.98;5.55;;;;;;;;;;5026130;28;20040;-67
2023/05/20 07:51:04;;;;;;;5.57;4.90;;;;;;;;;;5022169;28;20887;-67
2023/05/20 07:53:30;;;;;;;5.70;5.20;;;;;;;;;;5038615;28;20044;-67
2023/05/20 07:55:56;;;;;;;6.18;5.57;;;;;;;;;;5004941;28;20043;-67
2023/05/20 07:58:23;;;;;;;5.78;5.38;;;;;;;;;;5021790;28;20059;-66
2023/05/20 08:00:50;;;;;;;5.55;5.15;;;;;;;;;;5022939;28;20080;-67
2023/05/20 08:03:16;;;;;;;5.25;4.75;;;;;;;;;;5021558;28;20052;-66
2023/05/20 08:05:52;;;;;;;5.95;5.45;;;;;;;;;;5016953;28;20047;-66
2023/05/20 08:08:18;;;;;;;5.45;5.05;;;;;;;;;;5023820;28;20120;-66
2023/05/20 08:11:00;;;;;;;5.45;5.05;;;;;;;;;;5022632;28;20079;-66
2023/05/20 08:13:26;;;;;;;5.60;5.10;;;;;;;;;;5025363;28;20113;-66
2023/05/20 08:15:55;;;;;;;5.00;4.60;;;;;;;;;;5019476;28;20037;-66
2023/05/20 08:18:22;;;;;;;6.80;5.35;;;;;;;;;;5020968;28;20471;-66
2023/05/20 08:20:49;;;;;;;5.50;5.10;;;;;;;;;;5020890;28;20112;-66
2023/05/20 08:23:15;;;;;;;7.32;4.70;;;;;;;;;;5023651;28;20039;-66
2023/05/20 08:25:41;;;;;;;5.95;5.45;;;;;;;;;;5019195;28;20028;-66
2023/05/20 08:28:07;;;;;;;5.65;5.07;;;;;;;;;;5017374;28;20036;-66
2023/05/20 08:30:36;;;;;;;8.00;5.73;;;;;;;;;;5022592;28;20131;-66
2023/05/20 08:33:01;;;;;;;5.65;5.10;;;;;;;;;;5022392;28;20550;-66
2023/05/20 08:35:28;;;;;;;5.43;5.03;;;;;;;;;;5018197;28;20075;-66
2023/05/20 08:37:53;;;;;;;6.25;5.75;;;;;;;;;;5038949;28;20029;-66
2023/05/20 08:40:20;;;;;;;5.38;4.97;;;;;;;;;;5020468;28;20040;-67
2023/05/20 08:42:48;;;;;;;7.20;5.20;;;;;;;;;;5018957;28;20084;-67
2023/05/20 08:45:17;;;;;;;5.80;5.30;;;;;;;;;;5004452;28;20029;-67
2023/05/20 08:47:43;;;;;;;5.90;5.40;;;;;;;;;;5022742;28;20511;-67
2023/05/20 08:50:10;;;;;;;5.72;5.20;;;;;;;;;;5033740;28;20029;-67
2023/05/20 08:52:42;;;;;;;5.50;5.00;;;;;;;;;;5041064;28;20407;-68
2023/05/20 08:55:10;;;;;;;5.63;5.13;;;;;;;;;;5040828;28;20037;-67
2023/05/20 08:57:37;;;;;;;5.32;4.93;;;;;;;;;;5038748;28;20025;-67
2023/05/20 09:00:08;;;;;;;5.78;5.20;;;;;;;;;;5037746;28;20033;-67
2023/05/20 09:02:37;;;;;;;5.50;5.10;;;;;;;;;;5039724;28;20384;-67
2023/05/20 09:05:03;;;;;;;;;;;;;;;;;;5037967;28;20116;-67
2023/05/20 09:07:29;;;;;;;5.47;4.97;;;;;;;;;;5031919;28;19928;-66
2023/05/20 09:09:56;;;;;;;4.65;4.25;;;;;;;;;;5036915;28;20029;-66
2023/05/20 09:12:22;;;;;;;4.65;4.28;;;;;;;;;;5041959;28;20045;-66
2023/05/20 09:14:48;;;;;;;6.47;4.10;;;;;;;;;;5034028;28;20047;-66
2023/05/20 09:17:13;;;;;;;5.22;4.72;;;;;;;;;;5036823;28;20065;-67
2023/05/20 09:19:39;;;;;;;5.85;5.18;;;;;;;;;;5043614;28;20032;-66
2023/05/20 09:22:04;;;;;;;5.32;4.82;;;;;;;;;;5029799;28;20040;-66
2023/05/20 09:24:30;;;;;;;4.63;4.32;;;;;;;;;;5036362;28;20398;-66
2023/05/20 09:26:57;;;;;;;4.90;4.50;;;;;;;;;;5035365;28;20029;-66
2023/05/20 09:29:23;;;;;;;4.95;4.55;;;;;;;;;;5035870;28;20441;-68
2023/05/20 09:31:49;;;;;;;5.03;4.63;;;;;;;;;;5033798;28;20033;-68
2023/05/20 09:34:20;;;;;;;6.07;4.60;;;;;;;;;;5034825;28;20239;-68
2023/05/20 09:36:52;;;;;;;6.03;5.45;;;;;;;;;;5037276;28;20063;-68
2023/05/20 09:39:24;;;;;;;5.60;5.10;;;;;;;;;;5036463;28;20021;-69
2023/05/20 09:42:16;;;;;;;5.30;4.90;;;;;;;;;;5034020;28;20038;-69
2023/05/20 09:44:43;;;;;;;5.53;5.10;;;;;;;;;;5036365;28;20484;-69
2023/05/20 09:47:10;;;;;;;5.47;5.00;;;;;;;;;;5033980;28;20131;-68
2023/05/20 09:49:37;;;;;;;4.93;4.53;;;;;;;;;;5034088;28;20420;-69
2023/05/20 09:52:03;;;;;;;7.22;5.13;;;;;;;;;;5035841;28;20491;-68
2023/05/20 09:54:30;;;;;;;4.53;4.15;;;;;;;;;;5037360;28;20033;-68
2023/05/20 09:56:59;;;;;;;4.60;4.30;;;;;;;;;;5037369;28;20408;-68
2023/05/20 09:59:26;;;;;;;5.55;5.15;;;;;;;;;;5035096;28;20369;-68
2023/05/20 10:01:51;;;;;;;4.95;4.50;;;;;;;;;;5037366;28;20451;-67
2023/05/20 10:04:19;;;;;;;6.40;4.70;;;;;;;;;;5040465;28;20040;-68
2023/05/20 10:07:14;;;;;;;4.68;4.35;;;;;;;;;;5037234;28;20103;-67
2023/05/20 10:09:56;;;;;;;8.05;5.10;;;;;;;;;;5033173;28;20032;-67
2023/05/20 10:12:46;;;;;;;4.93;4.53;;;;;;;;;;5036141;28;20037;-68
2023/05/20 10:15:15;;;;;;;4.97;4.57;;;;;;;;;;5040160;28;20033;-68
2023/05/20 10:18:05;;;;;;;5.50;5.00;;;;;;;;;;5036030;28;20180;-68
2023/05/20 10:20:31;;;;;;;5.38;4.80;;;;;;;;;;5038521;28;20045;-67
2023/05/20 10:22:57;;;;;;;6.22;4.88;;;;;;;;;;5037021;28;20063;-68
2023/05/20 10:25:25;;;;;;;5.35;4.85;;;;;;;;;;5040861;28;20024;-68
2023/05/20 10:27:51;;;;;;;5.45;5.03;;;;;;;;;;5033732;28;20041;-68
2023/05/20 10:30:21;;;;;;;4.93;4.50;;;;;;;;;;5034725;28;20507;-68
2023/05/20 10:33:01;;;;;;;5.82;5.18;;;;;;;;;;5021521;28;20048;-68
2023/05/20 10:35:27;;;;;;;5.32;4.93;;;;;;;;;;5035505;28;20040;-67
2023/05/20 10:37:54;;;;;;;4.50;4.10;;;;;;;;;;5044005;28;20029;-67
2023/05/20 10:40:21;;;;;;;5.50;5.00;;;;;;;;;;5041496;28;20041;-67
2023/05/20 10:42:47;;;;;;;5.05;4.57;;;;;;;;;;5035478;28;20510;-68
2023/05/20 10:45:28;;;;;;;4.90;4.60;;;;;;;;;;5039274;28;20029;-68
2023/05/20 10:47:57;;;;;;;5.20;4.70;;;;;;;;;;5039910;28;20037;-68
2023/05/20 10:50:39;;;;;;;5.30;4.90;;;;;;;;;;5034740;28;20124;-68
2023/05/20 10:53:06;;;;;;;5.13;4.72;;;;;;;;;;5037391;28;20071;-68
2023/05/20 10:55:37;;;;;;;5.43;5.03;;;;;;;;;;5036882;28;20408;-68
2023/05/20 10:58:03;;;;;;;5.03;4.63;;;;;;;;;;5042547;28;20037;-68
2023/05/20 11:00:29;;;;;;;4.95;4.40;;;;;;;;;;5024250;28;20090;-68
2023/05/20 11:02:55;;;;;;;5.13;4.65;;;;;;;;;;5039824;28;20040;-68
2023/05/20 11:05:21;;;;;;;4.40;4.10;;;;;;;;;;5037551;28;20507;-67
2023/05/20 11:07:46;;;;;;;4.72;4.32;;;;;;;;;;5039570;28;20041;-68
2023/05/20 11:10:12;;;;;;;4.47;4.10;;;;;;;;;;5043291;28;20108;-67
2023/05/20 11:12:38;;;;;;;4.65;4.25;;;;;;;;;;5034829;28;20493;-68
2023/05/20 11:15:04;;;;;;;4.43;4.13;;;;;;;;;;5040659;28;20033;-68
2023/05/20 11:17:30;;;;;;;4.75;4.35;;;;;;;;;;5041000;28;20511;-67
2023/05/20 11:19:59;;;;;;;5.50;4.75;;;;;;;;;;5034267;28;20068;-68
2023/05/20 11:22:25;;;;;;;4.43;4.03;;;;;;;;;;5041861;28;20268;-68
2023/05/20 11:24:51;;;;;;;4.65;4.25;;;;;;;;;;5038155;28;20031;-68
2023/05/20 11:27:17;;;;;;;5.95;4.65;;;;;;;;;;5040304;28;20422;-68
2023/05/20 11:29:43;;;;;;;4.72;4.32;;;;;;;;;;5041547;28;20043;-68
2023/05/20 11:32:09;;;;;;;4.45;4.15;;;;;;;;;;5042049;28;20438;-68
2023/05/20 11:34:36;;;;;;;4.88;4.47;;;;;;;;;;5041160;28;20107;-68
2023/05/20 11:37:01;;;;;;;5.00;4.60;;;;;;;;;;5041828;28;20033;-68
2023/05/20 11:39:30;;;;;;;4.60;4.13;;;;;;;;;;5021109;28;20416;-69
2023/05/20 11:41:56;;;;;;;4.70;4.35;;;;;;;;;;5040770;28;20041;-68
2023/05/20 11:44:23;;;;;;;5.38;4.88;;;;;;;;;;5039635;28;20333;-68
2023/05/20 11:46:49;;;;;;;4.90;4.45;;;;;;;;;;5035443;28;20033;-69
2023/05/20 11:49:15;;;;;;;5.00;4.60;;;;;;;;;;5038552;28;20043;-69
2023/05/20 11:51:42;;;;;;;4.90;4.50;;;;;;;;;;5040870;28;20086;-68
2023/05/20 11:54:09;;;;;;;4.65;4.28;;;;;;;;;;5036545;28;20192;-68
2023/05/20 11:56:40;;;;;;;5.00;4.60;;;;;;;;;;5038368;28;20596;-68
2023/05/20 11:59:08;;;;;;;4.97;4.35;;;;;;;;;;5035807;28;20033;-68
2023/05/20 12:01:42;;;;;;;4.82;4.50;;;;;;;;;;5035304;28;20041;-68
2023/05/20 12:04:08;;;;;;;4.93;4.53;;;;;;;;;;5042236;28;20048;-68
2023/05/20 12:06:36;;;;;;;4.93;4.53;;;;;;;;;;5037278;28;20421;-68
2023/05/20 12:09:05;;;;;;;5.10;4.70;;;;;;;;;;5039564;28;20029;-68
2023/05/20 12:11:35;;;;;;;4.88;4.32;;;;;;;;;;5036750;28;20033;-68
2023/05/20 12:14:02;;;;;;;5.00;4.50;;;;;;;;;;5039422;28;20032;-68
2023/05/20 12:16:30;;;;;;;4.90;4.40;;;;;;;;;;5039689;28;20040;-69
2023/05/20 12:18:56;;;;;;;6.32;4.60;;;;;;;;;;5033837;28;20032;-69
2023/05/20 12:21:21;;;;;;;4.75;4.45;;;;;;;;;;5033784;28;20109;-67
2023/05/20 12:23:47;;;;;;;5.03;4.63;;;;;;;;;;5040016;28;20052;-68
2023/05/20 12:26:12;;;;;;;6.13;5.50;;;;;;;;;;5036640;28;20033;-68
2023/05/20 12:28:39;;;;;;;4.93;4.57;;;;;;;;;;5037569;28;20033;-68
2023/05/20 12:31:04;;;;;;;5.40;5.00;;;;;;;;;;5036761;28;20047;-67
2023/05/20 12:33:30;;;;;;;5.30;4.80;;;;;;;;;;5037757;28;20032;-67
2023/05/20 12:35:56;;;;;;;5.63;5.22;;;;;;;;;;5035672;28;20037;-67
2023/05/20 12:38:22;;;;;;;4.70;4.30;;;;;;;;;;5036897;28;20268;-67
2023/05/20 12:40:47;;;;;;;4.82;4.38;;;;;;;;;;5040830;28;20208;-68
2023/05/20 12:43:13;;;;;;;5.03;4.63;;;;;;;;;;5016482;28;20074;-67
2023/05/20 12:45:39;;;;;;;5.25;4.85;;;;;;;;;;5035110;28;20492;-67
2023/05/20 12:48:06;;;;;;;4.70;4.30;;;;;;;;;;5034404;28;20025;-67
2023/05/20 12:50:32;;;;;;;4.90;4.50;;;;;;;;;;5041990;28;20035;-68
2023/05/20 12:52:57;;;;;;;6.07;4.50;;;;;;;;;;5035755;28;20033;-68
2023/05/20 12:55:23;;;;;;;5.20;4.80;;;;;;;;;;5036123;28;20409;-68
2023/05/20 12:57:48;;;;;;;5.03;4.72;;;;;;;;;;5039118;28;20499;-68
2023/05/20 13:00:15;;;;;;;6.00;4.55;;;;;;;;;;5038253;28;20044;-68
2023/05/20 13:02:42;;;;;;;5.03;4.63;;;;;;;;;;5035833;28;20046;-67
2023/05/20 13:05:08;;;;;;;5.57;5.13;;;;;;;;;;5023129;28;20029;-67
2023/05/20 13:07:33;;;;;;;5.05;4.65;;;;;;;;;;5040909;28;20052;-67
2023/05/20 13:09:59;;;;;;;5.15;4.75;;;;;;;;;;5043310;28;20396;-66
2023/05/20 13:12:25;;;;;;;5.03;4.63;;;;;;;;;;5040733;28;20026;-67
2023/05/20 13:14:51;;;;;;;5.90;4.57;;;;;;;;;;5024562;28;20091;-67
2023/05/20 13:17:17;;;;;;;4.53;4.13;;;;;;;;;;5040801;28;20041;-67
2023/05/20 13:19:44;;;;;;;4.55;4.25;;;;;;;;;;5034063;28;20120;-65
2023/05/20 13:22:10;;;;;;;8.93;4.47;;;;;;;;;;5041550;28;20477;-65
2023/05/20 13:24:37;;;;;;;4.88;4.47;;;;;;;;;;5038996;28;20469;-65
2023/05/20 13:27:03;;;;;;;4.80;4.50;;;;;;;;;;5038686;28;20104;-69
2023/05/20 13:29:29;;;;;;;4.75;4.40;;;;;;;;;;5026397;28;20029;-68
2023/05/20 13:31:55;;;;;;;4.50;4.20;;;;;;;;;;5042522;28;20029;-68
2023/05/20 13:34:21;;;;;;;4.70;4.40;;;;;;;;;;5041209;28;20064;-67
2023/05/20 13:36:46;;;;;;;5.10;4.70;;;;;;;;;;5042243;28;20044;-67
2023/05/20 13:39:14;;;;;;;4.60;4.28;;;;;;;;;;5039284;28;20089;-68
2023/05/20 13:41:40;;;;;;;5.07;4.68;;;;;;;;;;5023107;28;20451;-69
2023/05/20 13:44:05;;;;;;;5.07;4.68;;;;;;;;;;5028165;28;20560;-69
2023/05/20 13:46:31;;;;;;;4.97;4.57;;;;;;;;;;5039972;28;20113;-68
2023/05/20 13:48:56;;;;;;;5.38;4.97;;;;;;;;;;5038658;28;20064;-68
2023/05/20 13:51:22;;;;;;;5.10;4.70;;;;;;;;;;5040865;28;20073;-68
2023/05/20 13:53:48;;;;;;;5.07;4.68;;;;;;;;;;5040726;28;20041;-70
2023/05/20 13:56:13;;;;;;;4.78;4.45;;;;;;;;;;5037765;28;20025;-69
2023/05/20 13:58:39;;;;;;;5.32;4.78;;;;;;;;;;5033819;28;20402;-69
2023/05/20 14:01:05;;;;;;;7.78;4.45;;;;;;;;;;5041091;28;20546;-67
2023/05/20 14:03:32;;;;;;;5.30;4.90;;;;;;;;;;5022346;28;20067;-69
2023/05/20 14:05:57;;;;;;;5.20;4.80;;;;;;;;;;5020567;28;20650;-68
2023/05/20 14:08:23;;;;;;;5.07;4.70;;;;;;;;;;5034656;28;20032;-69
2023/05/20 14:10:53;;;;;;;5.30;4.57;;;;;;;;;;5038464;28;20036;-70
2023/05/20 14:13:22;;;;;;;5.40;5.00;;;;;;;;;;5045813;28;20048;-68
2023/05/20 14:15:49;;;;;;;5.00;4.60;;;;;;;;;;5047308;28;20431;-67
2023/05/20 14:18:16;;;;;;;4.60;4.20;;;;;;;;;;5044464;28;20034;-68
2023/05/20 14:20:41;;;;;;;5.18;4.75;;;;;;;;;;5045062;28;20033;-67
2023/05/20 14:23:07;;;;;;;5.15;4.75;;;;;;;;;;5049106;28;20041;-68
2023/05/20 14:25:34;;;;;;;5.30;4.90;;;;;;;;;;5043712;28;20049;-71
2023/05/20 14:28:00;;;;;;;5.75;4.82;;;;;;;;;;5028739;28;20987;-69
2023/05/20 14:30:25;;;;;;;4.90;4.60;;;;;;;;;;5045523;28;20033;-67
2023/05/20 14:32:51;;;;;;;4.93;4.53;;;;;;;;;;5040252;28;20179;-69
2023/05/20 14:35:17;;;;;;;5.10;4.70;;;;;;;;;;5041603;28;20067;-68
2023/05/20 14:37:43;;;;;;;4.95;4.57;;;;;;;;;;5039567;28;20044;-67
2023/05/20 14:40:09;;;;;;;5.05;4.63;;;;;;;;;;5036214;28;20079;-70
2023/05/20 14:42:35;;;;;;;4.70;4.40;;;;;;;;;;5042677;28;20033;-69